Time;durP1;ratioP1;P1;durP2;ratioP2;P2;SDS_P1;SDS_P2;PMS_P1;PMS_P2;Temp;Humidity;BMP_temperature;BMP_pressure;BME280_temperature;BME280_humidity;BME280_pressure;Samples;Min_cycle;Max_cycle;Signal;HPM_P1;HPM_P2
2019/04/23 00:01:26;;;;;;;15;3.9;;;;;;;11.76;51.38672;923.4225;;;;
2019/04/23 00:03:39;;;;;;;18.1;4.1;;;;;;;11.91;51.16406;923.468;;;;
2019/04/23 00:06:06;;;;;;;17.8;4;;;;;;;11.78;51.56152;923.3558;;;;
2019/04/23 00:08:34;;;;;;;11.4;3.4;;;;;;;11.85;49.56543;923.4205;;;;
2019/04/23 00:10:56;;;;;;;13;4.1;;;;;;;12.35;48.94629;923.418;;;;
2019/04/23 00:13:21;;;;;;;13.7;4;;;;;;;12.57;49.7168;923.467;;;;
2019/04/23 00:15:47;;;;;;;13.4;4.2;;;;;;;12.84;50.90625;923.3697;;;;
2019/04/23 00:18:13;;;;;;;14.5;4;;;;;;;13.12;50.54883;923.3976;;;;
2019/04/23 00:21:23;;;;;;;12.9;3.8;;;;;;;13.23;48.88477;923.5162;;;;
2019/04/23 00:23:07;;;;;;;15.8;4.1;;;;;;;13.05;48.34668;923.4664;;;;
2019/04/23 00:25:42;;;;;;;13.7;4.1;;;;;;;12.88;48.99316;923.4494;;;;
2019/04/23 00:27:57;;;;;;;11.4;3.7;;;;;;;12.93;49.02246;923.3962;;;;
2019/04/23 00:30:22;;;;;;;13.4;3.9;;;;;;;12.41;49.52539;923.4447;;;;
2019/04/23 00:32:47;;;;;;;11.9;4.1;;;;;;;11.86;50.27637;923.351;;;;
2019/04/23 00:35:13;;;;;;;13;3.9;;;;;;;11.66;51.07715;923.4308;;;;
2019/04/23 00:37:38;;;;;;;23.5;4.2;;;;;;;11.62;49.81348;923.3167;;;;
2019/04/23 00:40:03;;;;;;;13.7;3.7;;;;;;;11.98;49.22461;923.2424;;;;
2019/04/23 00:42:28;;;;;;;13.5;4;;;;;;;12.77;48.14453;923.1649;;;;
2019/04/23 00:44:53;;;;;;;14.8;3.9;;;;;;;13.05;48.38184;923.2314;;;;
2019/04/23 00:47:20;;;;;;;18.5;3.8;;;;;;;12.7;47.4707;923.2159;;;;
2019/04/23 00:49:45;;;;;;;16.8;3.8;;;;;;;12.63;47.93359;923.2974;;;;
2019/04/23 00:52:15;;;;;;;14.5;3.9;;;;;;;12.4;48.10254;923.318;;;;
2019/04/23 00:54:40;;;;;;;13.6;3.4;;;;;;;12.32;48.93066;923.3325;;;;
2019/04/23 00:57:06;;;;;;;16.7;4.1;;;;;;;11.97;49.72754;923.4221;;;;
2019/04/23 00:59:31;;;;;;;14.6;3.7;;;;;;;11.83;49.5166;923.389;;;;
2019/04/23 01:01:56;;;;;;;13.7;3.5;;;;;;;11.95;49.53223;923.369;;;;
2019/04/23 01:04:24;;;;;;;14.7;3.3;;;;;;;12.01;49.44629;923.3408;;;;
2019/04/23 01:06:50;;;;;;;10.3;3.8;;;;;;;12.21;47.93359;923.2988;;;;
2019/04/23 01:09:19;;;;;;;16;3.5;;;;;;;12.03;48.46387;923.3166;;;;
2019/04/23 01:11:40;;;;;;;17.9;3.9;;;;;;;12.39;47.27637;923.3365;;;;
2019/04/23 01:14:09;;;;;;;20.2;3.8;;;;;;;12.68;47.07813;923.4066;;;;
2019/04/23 01:16:31;;;;;;;11.7;3.6;;;;;;;12.73;46.5791;923.3958;;;;
2019/04/23 01:19:16;;;;;;;15.7;3.9;;;;;;;12.6;47.73438;923.3953;;;;
2019/04/23 01:21:25;;;;;;;13.6;4.2;;;;;;;12.14;49.24316;923.4182;;;;
2019/04/23 01:24:03;;;;;;;15.2;3.7;;;;;;;11.98;49.27148;923.3867;;;;
2019/04/23 01:26:11;;;;;;;15.8;4;;;;;;;11.82;50.22656;923.4194;;;;
2019/04/23 01:28:38;;;;;;;13.4;4.2;;;;;;;11.74;50.47949;923.4165;;;;
2019/04/23 01:31:01;;;;;;;12.5;4;;;;;;;11.56;50.62988;923.4211;;;;
2019/04/23 01:33:26;;;;;;;14.9;3.5;;;;;;;11.57;51.35352;923.4496;;;;
2019/04/23 01:35:51;;;;;;;11.2;4;;;;;;;11.89;50.79492;923.3432;;;;
2019/04/23 01:38:16;;;;;;;17.6;4.3;;;;;;;12.13;50.35254;923.2795;;;;
2019/04/23 01:40:41;;;;;;;24;4.2;;;;;;;11.78;50.75977;923.2714;;;;
2019/04/23 01:43:07;;;;;;;11;3.8;;;;;;;11.73;50.14746;923.3359;;;;
2019/04/23 01:45:33;;;;;;;17.3;4;;;;;;;11.92;48.63379;923.3522;;;;
2019/04/23 01:47:58;;;;;;;14.1;4.2;;;;;;;11.83;49.71289;923.2527;;;;
2019/04/23 01:50:23;;;;;;;16;3.7;;;;;;;11.89;50.28027;923.3599;;;;
2019/04/23 01:52:48;;;;;;;16.2;4.2;;;;;;;11.8;50.20117;923.2649;;;;
2019/04/23 01:55:13;;;;;;;11.6;3.8;;;;;;;12.19;49.13379;923.2464;;;;
2019/04/23 01:57:38;;;;;;;16.4;4.2;;;;;;;11.94;49.13965;923.2433;;;;
2019/04/23 02:00:04;;;;;;;17.6;4.2;;;;;;;11.77;49.88867;923.2037;;;;
2019/04/23 02:02:29;;;;;;;15.8;3.9;;;;;;;11.9;49.08984;923.2313;;;;
2019/04/23 02:04:54;;;;;;;13.5;3.8;;;;;;;11.98;49.14551;923.1992;;;;
2019/04/23 02:07:20;;;;;;;17.3;4.3;;;;;;;12.23;48.42871;923.233;;;;
2019/04/23 02:09:45;;;;;;;15.9;4.1;;;;;;;12.54;48.07227;923.2026;;;;
2019/04/23 02:12:10;;;;;;;15.8;4;;;;;;;12.23;49.11621;923.0927;;;;
2019/04/23 02:14:35;;;;;;;17;4.1;;;;;;;11.83;50.28516;923.0779;;;;
2019/04/23 02:17:03;;;;;;;12;4;;;;;;;11.73;49.87305;923.0553;;;;
2019/04/23 02:19:25;;;;;;;19.8;4.4;;;;;;;12.04;49.97559;923.0525;;;;
2019/04/23 02:21:57;;;;;;;15;4;;;;;;;12.02;49.48242;923.1094;;;;
2019/04/23 02:24:16;;;;;;;17.3;4.4;;;;;;;11.91;49.34277;923.0596;;;;
2019/04/23 02:26:41;;;;;;;14.9;4.1;;;;;;;11.9;48.35742;922.9839;;;;
2019/04/23 02:29:06;;;;;;;14.3;4.1;;;;;;;11.95;48.53418;923.0165;;;;
2019/04/23 02:31:31;;;;;;;26.1;6;;;;;;;12.02;49.00098;922.9052;;;;
2019/04/23 02:33:56;;;;;;;13.4;3.8;;;;;;;12.06;49.13086;922.8709;;;;
2019/04/23 02:36:23;;;;;;;16.3;4.3;;;;;;;11.96;49.6123;922.8918;;;;
2019/04/23 02:38:48;;;;;;;14.8;4;;;;;;;11.86;50.56348;922.8739;;;;
2019/04/23 02:41:14;;;;;;;12.9;4.3;;;;;;;11.73;50.7998;922.8217;;;;
2019/04/23 02:43:39;;;;;;;12.9;3.9;;;;;;;11.68;50.47363;922.8667;;;;
2019/04/23 02:46:04;;;;;;;15;4;;;;;;;11.64;51.24707;922.8842;;;;
2019/04/23 02:48:29;;;;;;;17.1;4.4;;;;;;;11.88;51;922.8298;;;;
2019/04/23 02:50:54;;;;;;;13.1;4.2;;;;;;;11.92;50.35254;922.8113;;;;
2019/04/23 02:53:19;;;;;;;16.4;4;;;;;;;12.02;50.04395;922.8158;;;;
2019/04/23 02:55:44;;;;;;;12;3.8;;;;;;;12.05;49.81738;922.7609;;;;
2019/04/23 02:58:10;;;;;;;15.5;4.5;;;;;;;12.13;49.55078;922.7051;;;;
2019/04/23 03:00:35;;;;;;;13.3;4.4;;;;;;;12.06;49.86426;922.6922;;;;
2019/04/23 03:03:00;;;;;;;15.1;4.3;;;;;;;12.06;50.01367;922.6451;;;;
2019/04/23 03:05:25;;;;;;;14.4;4.3;;;;;;;11.96;50.56348;922.6445;;;;
2019/04/23 03:07:50;;;;;;;15.2;4.2;;;;;;;12.06;50.81543;922.6716;;;;
2019/04/23 03:10:17;;;;;;;13.6;4.2;;;;;;;12.15;50.72266;922.6217;;;;
2019/04/23 03:12:44;;;;;;;14.8;4.2;;;;;;;11.99;50.55469;922.6623;;;;
2019/04/23 03:15:18;;;;;;;16.9;4.9;;;;;;;12.11;50.20215;922.6354;;;;
2019/04/23 03:17:53;;;;;;;11.6;3.8;;;;;;;11.94;51.10938;922.6267;;;;
2019/04/23 03:20:41;;;;;;;13.4;4.5;;;;;;;11.93;50.16992;922.5472;;;;
2019/04/23 03:22:36;;;;;;;13.9;3.9;;;;;;;11.94;50.04492;922.5923;;;;
2019/04/23 03:25:00;;;;;;;14.1;4.3;;;;;;;12.17;51.10352;922.5078;;;;
2019/04/23 03:27:15;;;;;;;11.7;3.9;;;;;;;12.28;50.7959;922.528;;;;
2019/04/23 03:29:43;;;;;;;15.2;5.1;;;;;;;12.62;49.19434;922.52;;;;
2019/04/23 03:32:08;;;;;;;14.1;4.5;;;;;;;13.11;48.98535;922.5547;;;;
2019/04/23 03:34:33;;;;;;;17.2;4.4;;;;;;;13.21;46.34277;922.4565;;;;
2019/04/23 03:36:59;;;;;;;18.5;4.5;;;;;;;13.09;46.28418;922.5233;;;;
2019/04/23 03:39:24;;;;;;;15.4;4.9;;;;;;;13.17;45.9834;922.4533;;;;
2019/04/23 03:41:49;;;;;;;19.9;5.1;;;;;;;13.37;45.55566;922.4063;;;;
2019/04/23 03:44:14;;;;;;;18.6;4.3;;;;;;;13.3;45.66309;922.4074;;;;
2019/04/23 03:46:40;;;;;;;17.3;4.5;;;;;;;13.71;44.90137;922.3791;;;;
2019/04/23 03:49:06;;;;;;;15.4;4.5;;;;;;;13.81;44.50977;922.4033;;;;
2019/04/23 03:51:34;;;;;;;18.3;4.8;;;;;;;13.97;44.53613;922.4472;;;;
2019/04/23 03:53:56;;;;;;;16.8;4.3;;;;;;;13.98;44.16895;922.3516;;;;
2019/04/23 03:56:21;;;;;;;17.8;4.2;;;;;;;14.03;44.46191;922.2896;;;;
2019/04/23 03:58:49;;;;;;;16.6;4.5;;;;;;;13.87;43.73242;922.3236;;;;
2019/04/23 04:02:29;;;;;;;14.5;4;;;;;;;14.11;43.45703;922.3127;;;;
2019/04/23 04:04:54;;;;;;;15.6;5;;;;;;;14.32;43.77832;922.1906;;;;
2019/04/23 04:07:20;;;;;;;23;5.3;;;;;;;14.08;43.89258;922.2952;;;;
2019/04/23 04:09:45;;;;;;;14.8;4.7;;;;;;;14.14;44.09375;922.2279;;;;
2019/04/23 04:12:10;;;;;;;30.7;5.5;;;;;;;14.35;43.83887;922.1017;;;;
2019/04/23 04:14:35;;;;;;;16;4.5;;;;;;;14.4;43.68164;922.1891;;;;
2019/04/23 04:17:03;;;;;;;13.5;4.9;;;;;;;14.44;44.23828;922.1628;;;;
2019/04/23 04:19:28;;;;;;;21.2;5.5;;;;;;;14.33;44.21582;922.2151;;;;
2019/04/23 04:21:56;;;;;;;15.4;5.1;;;;;;;14.53;43.96094;922.1542;;;;
2019/04/23 04:24:21;;;;;;;14.5;5.1;;;;;;;14.66;43.27051;922.1495;;;;
2019/04/23 04:26:51;;;;;;;12.4;4.8;;;;;;;14.74;44.16602;922.1726;;;;
2019/04/23 04:29:13;;;;;;;22.9;6.3;;;;;;;14.68;43.94141;922.1464;;;;
2019/04/23 04:31:39;;;;;;;23.4;6.2;;;;;;;14.66;44.12305;922.2048;;;;
2019/04/23 04:34:04;;;;;;;18.6;5.4;;;;;;;14.75;43.42969;922.1794;;;;
2019/04/23 04:36:29;;;;;;;22.5;5.5;;;;;;;14.71;43.4707;922.2971;;;;
2019/04/23 04:38:54;;;;;;;23.2;5.2;;;;;;;14.22;46.08301;922.3834;;;;
2019/04/23 04:41:23;;;;;;;16.2;4.7;;;;;;;14.43;42.59082;922.2574;;;;
2019/04/23 04:43:50;;;;;;;21;5.1;;;;;;;14.53;42.91211;922.2952;;;;
2019/04/23 04:46:15;;;;;;;18.7;5.1;;;;;;;14.3;44.77734;922.2794;;;;
2019/04/23 04:48:40;;;;;;;14.6;5.4;;;;;;;14.55;43.7793;922.3049;;;;
2019/04/23 04:51:05;;;;;;;23.4;5.6;;;;;;;14.66;42.65918;922.3074;;;;
2019/04/23 04:53:30;;;;;;;20.3;5.3;;;;;;;14.86;44.15527;922.302;;;;
2019/04/23 04:55:56;;;;;;;20.3;5.4;;;;;;;14.57;45.25586;922.3234;;;;
2019/04/23 04:58:21;;;;;;;19.5;5.6;;;;;;;14.38;45.61523;922.3104;;;;
2019/04/23 05:00:46;;;;;;;15.3;4.7;;;;;;;14.34;42.71973;922.355;;;;
2019/04/23 05:03:11;;;;;;;29.1;5.8;;;;;;;14.19;42.25684;922.4049;;;;
2019/04/23 05:05:36;;;;;;;40.1;6.7;;;;;;;14.44;41.09473;922.3372;;;;
2019/04/23 05:08:02;;;;;;;23.6;5.3;;;;;;;14.97;38.87109;922.3553;;;;
2019/04/23 05:10:27;;;;;;;22.8;5.7;;;;;;;14.73;41.80176;922.3669;;;;
2019/04/23 05:12:52;;;;;;;17.8;5;;;;;;;14.77;42.69336;922.3951;;;;
2019/04/23 05:15:17;;;;;;;17.4;4.8;;;;;;;15.07;42.13379;922.2728;;;;
2019/04/23 05:17:55;;;;;;;24.1;5.1;;;;;;;15.19;41.45313;922.2944;;;;
2019/04/23 05:20:20;;;;;;;32.4;5.8;;;;;;;15.18;42.23633;922.3439;;;;
2019/04/23 05:22:45;;;;;;;16.7;4.6;;;;;;;15.34;40.91406;922.2952;;;;
2019/04/23 05:25:10;;;;;;;20.1;4.8;;;;;;;15.44;40.20605;922.3764;;;;
2019/04/23 05:27:45;;;;;;;21.3;4.9;;;;;;;14.97;41.73242;922.3465;;;;
2019/04/23 05:30:11;;;;;;;13.2;4.3;;;;;;;14.87;41.50293;922.3908;;;;
2019/04/23 05:32:36;;;;;;;11.6;4;;;;;;;14.82;40.95605;922.402;;;;
2019/04/23 05:35:01;;;;;;;18;4.3;;;;;;;14.69;43.08887;922.4067;;;;
2019/04/23 05:37:26;;;;;;;13.6;4.7;;;;;;;14.86;43.02441;922.4175;;;;
2019/04/23 05:39:52;;;;;;;18;4.9;;;;;;;14.86;43.23242;922.3661;;;;
2019/04/23 05:42:17;;;;;;;16.5;4.4;;;;;;;14.61;44.99414;922.4849;;;;
2019/04/23 05:44:42;;;;;;;12.2;4.4;;;;;;;14.68;43.5957;922.454;;;;
2019/04/23 05:47:07;;;;;;;14.3;5.5;;;;;;;15.28;43.10059;922.3472;;;;
2019/04/23 05:49:32;;;;;;;16.8;5.6;;;;;;;15.35;42.16113;922.3247;;;;
2019/04/23 05:51:57;;;;;;;20.2;5.9;;;;;;;15.13;41.8623;922.3809;;;;
2019/04/23 05:54:22;;;;;;;19.3;4.6;;;;;;;14.97;41.00488;922.3633;;;;
2019/04/23 05:56:49;;;;;;;13.3;4.6;;;;;;;15.17;41.0127;922.3706;;;;
2019/04/23 05:59:19;;;;;;;12.2;4.6;;;;;;;15.19;40.72656;922.3596;;;;
2019/04/23 06:01:44;;;;;;;11.2;4.1;;;;;;;14.91;41.43848;922.3371;;;;
2019/04/23 06:04:09;;;;;;;13.4;4.3;;;;;;;14.92;41.42773;922.3578;;;;
2019/04/23 06:06:34;;;;;;;15.1;3.9;;;;;;;15.09;37.55566;922.3348;;;;
2019/04/23 06:08:59;;;;;;;9.7;3.1;;;;;;;15.5;36.67871;922.355;;;;
2019/04/23 06:11:28;;;;;;;9.4;3;;;;;;;15.62;35.98438;922.3641;;;;
2019/04/23 06:13:51;;;;;;;11.2;3.1;;;;;;;15.66;37.18848;922.3884;;;;
2019/04/23 06:16:16;;;;;;;11.2;3.9;;;;;;;15.6;37.34473;922.3759;;;;
2019/04/23 06:18:42;;;;;;;12.3;3.1;;;;;;;15.73;35.41504;922.3787;;;;
2019/04/23 06:21:18;;;;;;;10.7;3.1;;;;;;;15.8;35.94141;922.3601;;;;
2019/04/23 06:24:10;;;;;;;12.9;3.2;;;;;;;15.95;35.49121;922.3259;;;;
2019/04/23 06:26:38;;;;;;;11.1;3.5;;;;;;;15.92;35.20996;922.3571;;;;
2019/04/23 06:29:12;;;;;;;13;3.5;;;;;;;15.98;36.37207;922.3602;;;;
2019/04/23 06:31:38;;;;;;;7.8;2.9;;;;;;;15.97;35.71191;922.3455;;;;
2019/04/23 06:34:03;;;;;;;6.8;2.7;;;;;;;15.95;35.80371;922.3259;;;;
2019/04/23 06:36:29;;;;;;;13.3;3.2;;;;;;;15.96;35.83789;922.3248;;;;
2019/04/23 06:38:54;;;;;;;11;2.9;;;;;;;16.11;36.12891;922.3855;;;;
2019/04/23 06:41:19;;;;;;;10.1;2.9;;;;;;;16.13;34.89258;922.2885;;;;
2019/04/23 06:43:51;;;;;;;10.9;2.8;;;;;;;16.23;34.7959;922.2963;;;;
2019/04/23 06:46:09;;;;;;;7.5;2.6;;;;;;;16.31;34.59473;922.31;;;;
2019/04/23 06:48:34;;;;;;;11.5;2.8;;;;;;;16.52;35.94238;922.3912;;;;
2019/04/23 06:50:59;;;;;;;7;2.7;;;;;;;16.61;34.24707;922.3278;;;;
2019/04/23 06:53:24;;;;;;;11.5;2.6;;;;;;;16.66;33.93848;922.3075;;;;
2019/04/23 06:55:49;;;;;;;9.8;3;;;;;;;16.83;35.13281;922.3558;;;;
2019/04/23 06:58:15;;;;;;;9.7;3.2;;;;;;;16.77;34.35254;922.3309;;;;
2019/04/23 07:00:40;;;;;;;10.5;3.3;;;;;;;16.63;34.88574;922.3247;;;;
2019/04/23 07:03:08;;;;;;;8;2.8;;;;;;;16.84;35.45898;922.3329;;;;
2019/04/23 07:05:39;;;;;;;12.8;3.2;;;;;;;16.95;34.86523;922.2737;;;;
2019/04/23 07:07:58;;;;;;;9;3.2;;;;;;;16.83;34.62305;922.3351;;;;
2019/04/23 07:10:23;;;;;;;8.4;3.1;;;;;;;16.91;33.76074;922.2239;;;;
2019/04/23 07:12:48;;;;;;;8.8;3.1;;;;;;;17.15;34.91602;922.1806;;;;
2019/04/23 07:15:13;;;;;;;12.1;3.6;;;;;;;17.31;34.32617;922.1483;;;;
2019/04/23 07:17:40;;;;;;;9.2;2.7;;;;;;;17.43;33.53418;922.2258;;;;
2019/04/23 07:20:05;;;;;;;7.5;2.6;;;;;;;17.77;33.93164;922.2228;;;;
2019/04/23 07:22:31;;;;;;;8.3;2.5;;;;;;;17.98;34.91211;922.2349;;;;
2019/04/23 07:24:56;;;;;;;9.2;2.6;;;;;;;17.92;32.61914;922.2092;;;;
2019/04/23 07:27:22;;;;;;;8;2.8;;;;;;;17.93;33.25879;922.1824;;;;
2019/04/23 07:29:47;;;;;;;8.1;3.2;;;;;;;18.16;32.48535;922.1442;;;;
2019/04/23 07:32:15;;;;;;;9.6;3.4;;;;;;;18.45;32.19434;922.1434;;;;
2019/04/23 07:34:39;;;;;;;9.2;3.3;;;;;;;18.89;32.16699;922.1024;;;;
2019/04/23 07:37:03;;;;;;;7.7;2.4;;;;;;;19.25;32.91602;922.0862;;;;
2019/04/23 07:39:34;;;;;;;8.7;2.3;;;;;;;19.22;32.13379;921.9705;;;;
2019/04/23 07:42:02;;;;;;;7.6;2.3;;;;;;;19.49;32.43262;921.9967;;;;
2019/04/23 07:47:39;;;;;;;5.6;2.2;;;;;;;20.11;30.64648;922.0167;;;;
2019/04/23 07:49:09;;;;;;;7.1;2.1;;;;;;;20.44;30.42383;921.9651;;;;
2019/04/23 07:51:34;;;;;;;5.6;2.2;;;;;;;20.92;28.39941;921.9825;;;;
2019/04/23 07:53:59;;;;;;;5.6;1.8;;;;;;;21.21;27.13086;921.9136;;;;
2019/04/23 07:56:24;;;;;;;5.2;1.9;;;;;;;20.58;27.37305;921.9379;;;;
2019/04/23 07:58:49;;;;;;;5.7;1.9;;;;;;;20.31;28.47656;921.8987;;;;
2019/04/23 08:01:26;;;;;;;5.3;2.1;;;;;;;20.78;28.82227;921.9579;;;;
2019/04/23 08:03:57;;;;;;;6.6;1.9;;;;;;;21.02;27.16602;921.9059;;;;
2019/04/23 08:06:22;;;;;;;5.5;1.6;;;;;;;20.69;27.58984;921.9288;;;;
2019/04/23 08:08:47;;;;;;;7.6;1.9;;;;;;;21.11;28.25879;921.9091;;;;
2019/04/23 08:11:12;;;;;;;5.5;1.8;;;;;;;21.01;28.62695;921.9249;;;;
2019/04/23 08:13:40;;;;;;;5.2;1.8;;;;;;;21.28;27.86035;921.9081;;;;
2019/04/23 08:16:26;;;;;;;8.8;2;;;;;;;21.66;27.70898;921.9067;;;;
2019/04/23 08:18:51;;;;;;;6.8;1.8;;;;;;;21.49;26.86621;921.9043;;;;
2019/04/23 08:21:27;;;;;;;5.9;1.6;;;;;;;21.5;26.92578;921.8979;;;;
2019/04/23 08:26:34;;;;;;;6.7;1.5;;;;;;;21.53;28.87109;921.8371;;;;
2019/04/23 08:29:08;;;;;;;5.6;1.7;;;;;;;21.47;26.75977;921.7953;;;;
2019/04/23 08:31:30;;;;;;;5.1;1.6;;;;;;;21.5;26.75;921.8681;;;;
2019/04/23 08:33:55;;;;;;;4.2;1.5;;;;;;;21.51;26.80957;921.8785;;;;
2019/04/23 08:36:22;;;;;;;4.8;1.9;;;;;;;21.53;26.22559;921.7932;;;;
2019/04/23 08:38:47;;;;;;;7.6;2.1;;;;;;;21.76;26.97656;921.8384;;;;
2019/04/23 08:41:13;;;;;;;10.4;1.8;;;;;;;22.09;26.96094;921.8403;;;;
2019/04/23 08:43:40;;;;;;;6.1;1.6;;;;;;;22.27;26.33984;921.8359;;;;
2019/04/23 08:48:33;;;;;;;9.3;1.9;;;;;;;22.1;26.02441;921.8261;;;;
2019/04/23 08:50:58;;;;;;;7.3;1.7;;;;;;;21.85;26.75977;921.8105;;;;
2019/04/23 08:53:28;;;;;;;2.8;1.6;;;;;;;22.03;26.6416;921.8192;;;;
2019/04/23 08:55:53;;;;;;;4.7;1.6;;;;;;;21.08;26.79492;921.8791;;;;
2019/04/23 08:58:19;;;;;;;4.1;1.4;;;;;;;21.12;27.42969;921.8508;;;;
2019/04/23 09:00:44;;;;;;;5.2;1.5;;;;;;;21.22;26.62891;921.9166;;;;
2019/04/23 09:03:16;;;;;;;3.7;1.4;;;;;;;21.39;27.42285;921.8853;;;;
2019/04/23 09:05:41;;;;;;;6.9;1.6;;;;;;;21.38;28.13574;921.8658;;;;
2019/04/23 09:08:07;;;;;;;8.7;1.7;;;;;;;21.59;26.88477;921.8089;;;;
2019/04/23 09:10:32;;;;;;;7.3;1.7;;;;;;;21.2;27.48145;921.8462;;;;
2019/04/23 09:12:57;;;;;;;3.4;1.4;;;;;;;21.32;28.4248;921.8111;;;;
2019/04/23 09:15:22;;;;;;;7.7;2.1;;;;;;;21.53;27.8418;921.7452;;;;
2019/04/23 09:17:47;;;;;;;4.3;1.5;;;;;;;21.78;26.74414;921.7516;;;;
2019/04/23 09:20:12;;;;;;;9.3;2.1;;;;;;;21.82;26.92188;921.7495;;;;
2019/04/23 09:22:37;;;;;;;10.8;1.9;;;;;;;21.26;27.4502;921.7123;;;;
2019/04/23 09:25:02;;;;;;;8.1;1.6;;;;;;;20.93;28.0957;921.7961;;;;
2019/04/23 09:27:27;;;;;;;6.1;1.7;;;;;;;20.77;28.19141;921.8167;;;;
2019/04/23 09:29:52;;;;;;;2.7;1.5;;;;;;;20.6;28.25;921.753;;;;
2019/04/23 09:32:20;;;;;;;3.9;1.8;;;;;;;20.32;28.95605;921.7371;;;;
2019/04/23 09:34:47;;;;;;;11.8;9.5;;;;;;;20.56;29.27637;921.7294;;;;
2019/04/23 09:40:34;;;;;;;5.2;1.5;;;;;;;20.63;28.8125;921.7056;;;;
2019/04/23 09:42:27;;;;;;;4.3;1.6;;;;;;;20.44;28.84668;921.7452;;;;
2019/04/23 09:44:45;;;;;;;3.6;1.5;;;;;;;20.57;28.73828;921.7113;;;;
2019/04/23 09:47:28;;;;;;;7.7;1.6;;;;;;;20.73;29.07617;921.7245;;;;
2019/04/23 09:49:29;;;;;;;19;2;;;;;;;20.6;28.96191;921.7283;;;;
2019/04/23 09:51:56;;;;;;;3.3;1.2;;;;;;;20.53;29.00391;921.7874;;;;
2019/04/23 09:54:19;;;;;;;3.7;1.5;;;;;;;20.53;28.47949;921.7084;;;;
2019/04/23 09:56:45;;;;;;;2.6;1.3;;;;;;;20.66;28.84961;921.7098;;;;
2019/04/23 09:59:10;;;;;;;2.7;1.5;;;;;;;20.65;28.49805;921.7628;;;;
2019/04/23 10:01:35;;;;;;;4.9;1.4;;;;;;;20.52;29.01563;921.6928;;;;
2019/04/23 10:04:01;;;;;;;5.3;1.7;;;;;;;20.46;28.7207;921.6768;;;;
2019/04/23 10:06:26;;;;;;;4.3;1.4;;;;;;;20.87;28.4541;921.7012;;;;
2019/04/23 10:08:51;;;;;;;4.6;1.3;;;;;;;21.08;28.16406;921.6122;;;;
2019/04/23 10:11:16;;;;;;;3.6;1.5;;;;;;;21.29;28.35254;921.5817;;;;
2019/04/23 10:13:42;;;;;;;3;1.2;;;;;;;21.13;27.82715;921.7123;;;;
2019/04/23 10:16:07;;;;;;;6.4;1.4;;;;;;;21.08;28.02344;921.7237;;;;
2019/04/23 10:18:32;;;;;;;5.5;1.3;;;;;;;21.23;28.58301;921.6989;;;;
2019/04/23 10:20:57;;;;;;;3.1;1.4;;;;;;;21.23;28.19727;921.6083;;;;
2019/04/23 10:23:22;;;;;;;3.9;1.3;;;;;;;21.28;27.77832;921.6658;;;;
2019/04/23 10:25:47;;;;;;;4;1.3;;;;;;;20.78;28.12109;921.6951;;;;
2019/04/23 10:28:19;;;;;;;4.1;1.4;;;;;;;20.6;28.9043;921.7194;;;;
2019/04/23 10:30:38;;;;;;;3.6;1.4;;;;;;;20.69;29.40137;921.7216;;;;
2019/04/23 10:33:03;;;;;;;3.6;1.3;;;;;;;20.76;28.92578;921.7713;;;;
2019/04/23 10:35:28;;;;;;;2.3;0.9;;;;;;;20.81;28.87109;921.707;;;;
2019/04/23 10:37:56;;;;;;;3.5;1.2;;;;;;;20.82;29.40918;921.7614;;;;
2019/04/23 10:40:19;;;;;;;4.8;1.3;;;;;;;20.78;29.66406;921.7081;;;;
2019/04/23 10:42:44;;;;;;;4.5;1.1;;;;;;;20.74;28.96094;921.6962;;;;
2019/04/23 10:45:24;;;;;;;3.3;1.2;;;;;;;20.83;28.45117;921.7256;;;;
2019/04/23 10:48:04;;;;;;;3.1;1;;;;;;;20.74;28.3291;921.7103;;;;
2019/04/23 10:50:16;;;;;;;5;1.3;;;;;;;21.27;28.5498;921.6205;;;;
2019/04/23 10:52:24;;;;;;;6.8;1.7;;;;;;;21.58;27.36426;921.6469;;;;
2019/04/23 10:54:50;;;;;;;2.6;1;;;;;;;21.6;27.6582;921.6094;;;;
2019/04/23 10:57:15;;;;;;;5;1.2;;;;;;;21.58;26.97852;921.6378;;;;
2019/04/23 10:59:40;;;;;;;3.6;1.1;;;;;;;21.24;29.64746;921.7158;;;;
2019/04/23 11:02:05;;;;;;;5.8;1.7;;;;;;;20.8;28.82422;921.7083;;;;
2019/04/23 11:04:32;;;;;;;2.5;1.1;;;;;;;20.8;28.41504;921.7263;;;;
2019/04/23 11:06:57;;;;;;;6.1;1.6;;;;;;;20.82;29.11719;921.6281;;;;
2019/04/23 11:09:30;;;;;;;5.4;1.6;;;;;;;20.97;28.81152;921.6942;;;;
2019/04/23 11:11:54;;;;;;;5.2;1.6;;;;;;;21.38;32.37305;921.6974;;;;
2019/04/23 11:14:15;;;;;;;1.8;1.2;;;;;;;21.82;28.10547;921.6675;;;;
2019/04/23 11:16:40;;;;;;;6;1.7;;;;;;;22.08;27.74609;921.7859;;;;
2019/04/23 11:19:05;;;;;;;4.3;1.1;;;;;;;21.86;30.32227;921.7302;;;;
2019/04/23 11:21:30;;;;;;;3.7;1.1;;;;;;;22.36;29.47656;921.7906;;;;
2019/04/23 11:23:57;;;;;;;2.5;0.8;;;;;;;22.91;27.18848;921.7505;;;;
2019/04/23 11:26:22;;;;;;;1.1;0.7;;;;;;;21.81;30.19043;921.7647;;;;
2019/04/23 11:28:47;;;;;;;1.7;0.8;;;;;;;21.24;31.90625;921.7628;;;;
2019/04/23 11:31:12;;;;;;;2.3;0.7;;;;;;;20.78;31.19434;921.7767;;;;
2019/04/23 11:33:37;;;;;;;4;0.8;;;;;;;20.46;33.87109;921.7583;;;;
2019/04/23 11:36:02;;;;;;;3.7;0.7;;;;;;;20.45;33.14453;921.7698;;;;
2019/04/23 11:38:27;;;;;;;0.8;0.6;;;;;;;20.62;32.16504;921.7198;;;;
2019/04/23 11:40:52;;;;;;;0.6;0.5;;;;;;;20.23;33.29297;921.726;;;;
2019/04/23 11:43:18;;;;;;;1.7;0.7;;;;;;;20.32;33.67285;921.7512;;;;
2019/04/23 11:45:43;;;;;;;1.6;0.7;;;;;;;20.86;31.60938;921.7775;;;;
2019/04/23 11:48:08;;;;;;;1.9;0.6;;;;;;;20.96;31.51172;921.6955;;;;
2019/04/23 11:50:33;;;;;;;2;0.6;;;;;;;20.9;31.32031;921.7183;;;;
2019/04/23 11:52:59;;;;;;;2.1;0.6;;;;;;;21.07;31.36816;921.7469;;;;
2019/04/23 11:55:24;;;;;;;1;0.6;;;;;;;20.72;31.51855;921.7037;;;;
2019/04/23 11:57:53;;;;;;;1.9;0.6;;;;;;;20.53;31.76172;921.8378;;;;
2019/04/23 12:00:39;;;;;;;0.8;0.4;;;;;;;20.28;30.77539;921.7872;;;;
2019/04/23 12:03:00;;;;;;;1.7;0.7;;;;;;;20.57;32.42969;921.8795;;;;
2019/04/23 12:07:44;;;;;;;2;0.5;;;;;;;20.61;33.34473;921.8165;;;;
2019/04/23 12:10:12;;;;;;;1.4;0.6;;;;;;;20.72;33.31836;921.8423;;;;
2019/04/23 12:12:33;;;;;;;1.2;0.6;;;;;;;20.77;31.91895;921.8686;;;;
2019/04/23 12:15:07;;;;;;;2.1;0.7;;;;;;;21.05;32.60645;921.91;;;;
2019/04/23 12:17:32;;;;;;;3.5;0.7;;;;;;;21.05;33.78711;921.8542;;;;
2019/04/23 12:20:00;;;;;;;1.6;0.7;;;;;;;21;32.22852;921.9274;;;;
2019/04/23 12:22:23;;;;;;;1.5;0.7;;;;;;;20.69;30.56934;921.9805;;;;
2019/04/23 12:24:52;;;;;;;3;0.7;;;;;;;20.53;31.28223;921.9684;;;;
2019/04/23 12:27:14;;;;;;;1.6;0.5;;;;;;;20.6;30.27051;921.9264;;;;
2019/04/23 12:29:40;;;;;;;3.9;0.6;;;;;;;20.69;32.55664;921.9468;;;;
2019/04/23 12:32:07;;;;;;;1;0.6;;;;;;;20.53;30.83887;921.9374;;;;
2019/04/23 12:34:30;;;;;;;5.2;0.6;;;;;;;20.77;30.64453;921.9772;;;;
2019/04/23 12:37:04;;;;;;;3.4;0.7;;;;;;;20.86;33.1875;921.9626;;;;
2019/04/23 12:39:23;;;;;;;1.4;0.6;;;;;;;21.21;33.03906;921.9227;;;;
2019/04/23 12:41:48;;;;;;;1.8;0.7;;;;;;;21.63;31.93359;921.8599;;;;
2019/04/23 12:44:13;;;;;;;4;0.7;;;;;;;21.32;30.36719;921.837;;;;
2019/04/23 12:46:38;;;;;;;2.2;0.6;;;;;;;21.54;29.46875;921.7089;;;;
2019/04/23 12:49:03;;;;;;;0.5;0.4;;;;;;;21.27;31.1709;921.8237;;;;
2019/04/23 12:51:38;;;;;;;2.9;0.5;;;;;;;21.05;30.58203;921.8115;;;;
2019/04/23 12:53:54;;;;;;;2.1;0.6;;;;;;;21.37;31.4707;921.8024;;;;
2019/04/23 12:56:19;;;;;;;2.7;0.7;;;;;;;21.35;30.73242;921.8657;;;;
2019/04/23 12:58:45;;;;;;;0.6;0.5;;;;;;;21.34;31.33984;921.8074;;;;
2019/04/23 13:01:10;;;;;;;3.5;0.5;;;;;;;21.48;30.22559;921.7721;;;;
2019/04/23 13:03:35;;;;;;;0.8;0.5;;;;;;;21.41;28.89941;921.743;;;;
2019/04/23 13:06:01;;;;;;;0.5;0.3;;;;;;;21.2;29.43457;921.7697;;;;
2019/04/23 13:08:27;;;;;;;18.9;0.9;;;;;;;21.14;30.74121;921.7396;;;;
2019/04/23 13:10:52;;;;;;;1.3;0.5;;;;;;;21.19;28.83691;921.7023;;;;
2019/04/23 13:13:17;;;;;;;1.2;0.5;;;;;;;21.96;30.21191;921.7434;;;;
2019/04/23 13:15:42;;;;;;;0.9;0.4;;;;;;;22.11;29.09668;921.6719;;;;
2019/04/23 13:18:07;;;;;;;2.5;0.5;;;;;;;22.18;27.45996;921.6383;;;;
2019/04/23 13:20:32;;;;;;;4.1;0.5;;;;;;;22.33;27.30469;921.605;;;;
2019/04/23 13:22:57;;;;;;;1;0.5;;;;;;;22;28.67969;921.5594;;;;
2019/04/23 13:26:04;;;;;;;2;0.5;;;;;;;22.7;27.9502;921.5812;;;;
2019/04/23 13:27:48;;;;;;;2.6;0.6;;;;;;;22.28;27.95801;921.5363;;;;
2019/04/23 13:30:21;;;;;;;2.2;0.6;;;;;;;21.66;29.18457;921.6255;;;;
2019/04/23 13:33:03;;;;;;;9.8;0.6;;;;;;;21.77;27.56348;921.5817;;;;
2019/04/23 13:35:28;;;;;;;4.4;0.5;;;;;;;22.07;30.71191;921.6445;;;;
2019/04/23 13:38:01;;;;;;;1.8;0.5;;;;;;;22.07;28.68359;921.5277;;;;
2019/04/23 13:40:29;;;;;;;1.6;0.5;;;;;;;22.28;28.18164;921.4441;;;;
2019/04/23 13:42:54;;;;;;;2.4;0.6;;;;;;;22.64;28.2627;921.48;;;;
2019/04/23 13:45:19;;;;;;;3.6;0.6;;;;;;;22.58;28.50586;921.49;;;;
2019/04/23 13:47:44;;;;;;;6;0.7;;;;;;;23.3;28.55176;921.488;;;;
2019/04/23 13:50:09;;;;;;;3.6;0.6;;;;;;;22.83;26.83105;921.4869;;;;
2019/04/23 13:52:34;;;;;;;2.4;0.6;;;;;;;22.79;28.63574;921.489;;;;
2019/04/23 13:55:00;;;;;;;2.5;0.5;;;;;;;23.16;26.90918;921.4439;;;;
2019/04/23 13:57:25;;;;;;;1.6;0.5;;;;;;;23.05;27.11426;921.4584;;;;
2019/04/23 13:59:50;;;;;;;1.5;0.7;;;;;;;22.91;28.78516;921.4167;;;;
2019/04/23 14:02:15;;;;;;;3.3;0.7;;;;;;;22.82;28.22656;921.4023;;;;
2019/04/23 14:04:52;;;;;;;0.9;0.5;;;;;;;22.28;29.20117;921.3675;;;;
2019/04/23 14:07:06;;;;;;;3.9;0.7;;;;;;;22;31.21094;921.4297;;;;
2019/04/23 14:09:32;;;;;;;3.4;0.6;;;;;;;22.2;29.39551;921.432;;;;
2019/04/23 14:12:00;;;;;;;1.9;0.6;;;;;;;22.33;31.98438;921.4364;;;;
2019/04/23 14:14:26;;;;;;;4.3;0.8;;;;;;;22.17;27.95215;921.48;;;;
2019/04/23 14:16:50;;;;;;;2.5;0.8;;;;;;;22.59;28.2832;921.4264;;;;
2019/04/23 14:19:15;;;;;;;46.1;2.3;;;;;;;22.83;30.63574;921.4038;;;;
2019/04/23 14:21:41;;;;;;;1.8;0.7;;;;;;;22.77;28.74023;921.4228;;;;
2019/04/23 14:24:06;;;;;;;4.5;0.9;;;;;;;23.34;27.4375;921.3567;;;;